createdAt,value
2022-10-09T00:00:50.998Z,0.40
2022-10-09T00:05:47.017Z,0.57
2022-10-09T00:08:14.855Z,0.50
2022-10-09T00:10:43.447Z,0.68
2022-10-09T00:13:11.863Z,0.40
2022-10-09T00:15:42.410Z,0.32
2022-10-09T00:18:11.648Z,0.20
2022-10-09T00:20:40.264Z,0.52
2022-10-09T00:23:08.649Z,0.50
2022-10-09T00:25:37.186Z,0.50
2022-10-09T00:28:07.128Z,0.47
2022-10-09T00:30:35.532Z,0.50
2022-10-09T00:33:05.020Z,0.52
2022-10-09T00:35:33.063Z,0.43
2022-10-09T00:38:00.917Z,0.45
2022-10-09T00:40:28.871Z,0.45
2022-10-09T00:42:57.667Z,0.68
2022-10-09T00:45:26.156Z,0.50
2022-10-09T00:47:57.264Z,0.40
2022-10-09T00:50:32.090Z,0.40
2022-10-09T00:53:01.257Z,0.30
2022-10-09T00:55:31.031Z,0.68
2022-10-09T00:58:01.215Z,0.40
2022-10-09T01:00:29.101Z,0.57
2022-10-09T01:02:57.002Z,0.40
2022-10-09T01:05:38.747Z,0.30
2022-10-09T01:08:11.668Z,0.50
2022-10-09T01:10:46.135Z,0.50
2022-10-09T01:13:24.141Z,0.38
2022-10-09T01:15:56.191Z,0.50
2022-10-09T01:18:32.649Z,0.30
2022-10-09T01:21:06.709Z,0.40
2022-10-09T01:23:44.853Z,0.55
2022-10-09T01:26:32.889Z,0.40
2022-10-09T01:29:06.743Z,0.50
2022-10-09T01:31:38.722Z,0.40
2022-10-09T01:34:08.325Z,0.30
2022-10-09T01:36:38.022Z,0.30
2022-10-09T01:39:08.000Z,0.40
2022-10-09T01:41:36.589Z,0.25
2022-10-09T01:44:16.673Z,0.50
2022-10-09T01:46:44.664Z,0.30
2022-10-09T01:49:25.229Z,0.40
2022-10-09T01:51:57.979Z,0.20
2022-10-09T01:54:36.435Z,0.50
2022-10-09T01:57:06.167Z,0.65
2022-10-09T01:59:37.762Z,0.47
2022-10-09T02:02:07.454Z,0.50
2022-10-09T02:04:38.040Z,0.57
2022-10-09T02:07:07.104Z,0.45
2022-10-09T02:09:36.508Z,0.40
2022-10-09T02:12:09.066Z,0.47
2022-10-09T02:14:39.497Z,0.60
2022-10-09T02:17:11.531Z,0.80
2022-10-09T02:19:45.477Z,0.30
2022-10-09T02:22:16.266Z,0.68
2022-10-09T02:24:44.724Z,0.50
2022-10-09T02:27:14.594Z,0.60
2022-10-09T02:29:46.428Z,0.47
2022-10-09T02:32:15.287Z,0.40
2022-10-09T02:34:43.243Z,0.45
2022-10-09T02:37:11.151Z,0.63
2022-10-09T02:39:39.018Z,0.60
2022-10-09T02:42:06.971Z,0.60
2022-10-09T02:44:34.920Z,0.45
2022-10-09T02:47:04.601Z,0.30
2022-10-09T02:49:32.468Z,0.40
2022-10-09T02:52:00.351Z,0.50
2022-10-09T02:54:30.378Z,0.38
2022-10-09T02:56:58.241Z,0.47
2022-10-09T02:59:26.228Z,0.40
2022-10-09T03:01:54.453Z,0.40
2022-10-09T03:04:23.729Z,0.35
2022-10-09T03:06:51.628Z,0.40
2022-10-09T03:09:19.476Z,0.52
2022-10-09T03:11:47.356Z,0.38
2022-10-09T03:14:15.212Z,0.35
2022-10-09T03:16:43.101Z,0.50
2022-10-09T03:19:10.985Z,0.40
2022-10-09T03:21:40.240Z,0.60
2022-10-09T03:24:08.344Z,0.35
2022-10-09T03:26:36.188Z,0.40
2022-10-09T03:29:06.451Z,0.25
2022-10-09T03:34:21.330Z,0.40
2022-10-09T03:36:50.584Z,0.30
2022-10-09T03:39:18.426Z,0.45
2022-10-09T03:41:46.318Z,0.47
2022-10-09T03:44:14.164Z,0.63
2022-10-09T03:46:42.104Z,0.47
2022-10-09T03:49:10.084Z,0.50
2022-10-09T03:51:37.974Z,0.50
2022-10-09T03:54:07.570Z,0.40
2022-10-09T03:56:35.420Z,0.30
2022-10-09T03:59:05.586Z,0.40
2022-10-09T04:01:33.467Z,0.30
2022-10-09T04:04:01.343Z,0.70
2022-10-09T04:06:29.291Z,0.47
2022-10-09T04:08:57.472Z,0.50
2022-10-09T04:11:26.710Z,0.30
2022-10-09T04:13:54.741Z,0.28
2022-10-09T04:16:22.669Z,0.40
2022-10-09T04:18:50.783Z,0.50
2022-10-09T04:21:18.709Z,0.55
2022-10-09T04:23:46.599Z,0.50
2022-10-09T04:26:14.792Z,0.55
2022-10-09T04:28:44.968Z,0.45
2022-10-09T04:33:40.647Z,0.50
2022-10-09T04:36:08.900Z,0.55
2022-10-09T04:38:36.751Z,0.30
2022-10-09T04:41:06.002Z,0.47
2022-10-09T04:43:34.689Z,0.30
2022-10-09T04:46:07.200Z,0.75
2022-10-09T04:48:39.327Z,0.40
2022-10-09T04:51:08.060Z,0.40
2022-10-09T04:53:37.023Z,0.60
2022-10-09T04:56:05.993Z,0.20
2022-10-09T04:58:35.351Z,0.50
2022-10-09T05:01:08.822Z,0.40
2022-10-09T05:03:36.884Z,0.20
2022-10-09T05:06:07.039Z,0.40
2022-10-09T05:08:35.983Z,0.30
2022-10-09T05:11:04.435Z,0.30
2022-10-09T05:13:33.080Z,0.40
2022-10-09T05:16:03.730Z,0.30
2022-10-09T05:18:33.495Z,0.30
2022-10-09T05:21:04.260Z,0.88
2022-10-09T05:23:32.829Z,0.47
2022-10-09T05:26:03.959Z,0.40
2022-10-09T05:28:32.487Z,0.40
2022-10-09T05:31:00.674Z,0.43
2022-10-09T05:33:30.007Z,0.47
2022-10-09T05:36:01.050Z,1.03
2022-10-09T05:38:30.008Z,0.40
2022-10-09T05:40:59.569Z,0.30
2022-10-09T05:43:29.073Z,0.38
2022-10-09T05:45:57.432Z,0.50
2022-10-09T05:48:25.330Z,0.22
2022-10-09T05:50:53.201Z,0.57
2022-10-09T05:53:22.436Z,0.43
2022-10-09T05:55:50.308Z,0.30
2022-10-09T05:58:18.152Z,0.60
2022-10-09T06:00:46.002Z,0.30
2022-10-09T06:03:13.836Z,0.60
2022-10-09T06:05:41.671Z,0.70
2022-10-09T06:08:09.553Z,0.47
2022-10-09T06:10:38.771Z,0.50
2022-10-09T06:13:06.619Z,0.28
2022-10-09T06:15:34.485Z,0.40
2022-10-09T06:18:05.167Z,0.50
2022-10-09T06:20:33.008Z,0.57
2022-10-09T06:23:00.907Z,0.47
2022-10-09T06:25:28.761Z,0.35
2022-10-09T06:27:59.035Z,0.40
2022-10-09T06:32:54.605Z,0.40
2022-10-09T06:35:22.527Z,0.70
2022-10-09T06:37:50.354Z,0.55
2022-10-09T06:40:18.614Z,0.75
2022-10-09T06:42:46.785Z,0.60
2022-10-09T06:45:16.489Z,0.38
2022-10-09T06:47:44.345Z,0.40
2022-10-09T06:50:12.236Z,0.52
2022-10-09T06:52:40.104Z,0.30
2022-10-09T06:55:10.291Z,0.43
2022-10-09T06:57:38.209Z,0.50
2022-10-09T07:00:09.460Z,0.60
2022-10-09T07:02:43.778Z,0.45
2022-10-09T07:05:11.930Z,0.50
2022-10-09T07:07:43.759Z,0.40
2022-10-09T07:10:11.730Z,0.40
2022-10-09T07:12:40.353Z,0.30
2022-10-09T07:15:09.555Z,0.45
2022-10-09T07:17:38.820Z,0.50
2022-10-09T07:20:07.360Z,0.45
2022-10-09T07:22:35.241Z,0.50
2022-10-09T07:25:03.628Z,0.70
2022-10-09T07:27:31.947Z,0.40
2022-10-09T07:30:00.890Z,0.50
2022-10-09T07:32:28.767Z,0.35
2022-10-09T07:34:58.072Z,0.55
2022-10-09T07:37:25.920Z,0.47
2022-10-09T07:39:53.900Z,0.30
2022-10-09T07:42:21.824Z,0.20
2022-10-09T07:44:49.652Z,0.38
2022-10-09T07:47:17.672Z,0.30
2022-10-09T07:49:45.603Z,0.30
2022-10-09T07:52:14.794Z,0.40
2022-10-09T07:54:42.607Z,0.40
2022-10-09T07:57:10.460Z,0.32
2022-10-09T07:59:38.438Z,0.40
2022-10-09T08:02:06.335Z,0.45
2022-10-09T08:04:34.253Z,0.32
2022-10-09T08:07:02.096Z,0.30
2022-10-09T08:09:31.331Z,0.30
2022-10-09T08:11:59.195Z,0.32
2022-10-09T08:14:27.066Z,0.43
2022-10-09T08:16:54.935Z,0.30
2022-10-09T08:19:22.964Z,0.22
2022-10-09T08:21:50.996Z,0.22
2022-10-09T08:24:18.919Z,0.30
2022-10-09T08:26:48.323Z,0.20
2022-10-09T08:29:17.300Z,0.30
2022-10-09T08:31:46.321Z,0.40
2022-10-09T08:34:14.517Z,0.20
2022-10-09T08:36:42.602Z,0.52
2022-10-09T08:39:10.502Z,0.32
2022-10-09T08:41:45.628Z,0.47
2022-10-09T08:44:20.142Z,0.40
2022-10-09T08:47:00.544Z,0.40
2022-10-09T08:52:18.018Z,0.50
2022-10-09T08:54:45.982Z,0.60
2022-10-09T08:57:15.855Z,0.40
2022-10-09T08:59:45.815Z,0.60
2022-10-09T09:02:34.742Z,0.30
2022-10-09T09:05:17.794Z,0.40
2022-10-09T09:07:56.163Z,0.30
2022-10-09T09:10:38.143Z,0.30
2022-10-09T09:13:19.041Z,0.20
2022-10-09T09:15:55.498Z,0.32
2022-10-09T09:18:41.941Z,0.40
2022-10-09T09:21:18.453Z,0.20
2022-10-09T09:23:49.429Z,0.20
2022-10-09T09:26:19.402Z,0.20
2022-10-09T09:28:50.037Z,0.20
2022-10-09T09:31:24.031Z,0.40
2022-10-09T09:33:57.327Z,0.30
2022-10-09T09:36:29.769Z,0.45
2022-10-09T09:41:46.636Z,0.30
2022-10-09T09:44:16.050Z,0.30
2022-10-09T09:46:47.574Z,0.30
2022-10-09T09:49:19.850Z,0.20
2022-10-09T09:51:49.684Z,0.30
2022-10-09T09:54:20.461Z,0.30
2022-10-09T09:59:39.391Z,0.10
2022-10-09T10:02:15.605Z,0.28
2022-10-09T10:04:54.657Z,0.20
2022-10-09T10:07:30.558Z,0.30
2022-10-09T10:10:14.642Z,0.17
2022-10-09T10:12:43.028Z,0.30
2022-10-09T10:15:23.077Z,0.20
2022-10-09T10:18:00.952Z,0.17
2022-10-09T10:20:30.255Z,0.30
2022-10-09T10:22:59.875Z,0.30
2022-10-09T10:25:32.416Z,0.32
2022-10-09T10:28:06.092Z,0.40
2022-10-09T10:30:36.786Z,0.35
2022-10-09T10:33:14.193Z,0.30
2022-10-09T10:35:44.432Z,0.40
2022-10-09T10:38:16.095Z,0.25
2022-10-09T10:40:48.680Z,0.20
2022-10-09T10:43:27.789Z,1.52
2022-10-09T10:46:12.469Z,0.20
2022-10-09T10:48:45.660Z,0.20
2022-10-09T10:51:41.367Z,0.30
2022-10-09T10:54:26.711Z,0.25
2022-10-09T10:57:01.364Z,0.28
2022-10-09T10:59:39.401Z,0.40
2022-10-09T11:02:32.688Z,0.20
2022-10-09T11:05:15.865Z,0.20
2022-10-09T11:07:50.759Z,0.20
2022-10-09T11:10:29.625Z,0.40
2022-10-09T11:13:05.642Z,0.10
2022-10-09T11:15:46.040Z,0.30
2022-10-09T11:18:28.867Z,0.15
2022-10-09T11:21:10.674Z,0.30
2022-10-09T11:23:51.224Z,0.40
2022-10-09T11:26:30.150Z,0.30
2022-10-09T11:29:03.736Z,0.32
2022-10-09T11:31:37.145Z,0.20
2022-10-09T11:34:11.604Z,0.25
2022-10-09T11:36:42.799Z,0.17
2022-10-09T11:39:16.080Z,0.20
2022-10-09T11:41:46.798Z,0.10
2022-10-09T11:44:27.242Z,0.20
2022-10-09T11:49:38.623Z,0.17
2022-10-09T11:52:16.886Z,0.28
2022-10-09T11:54:44.984Z,0.35
2022-10-09T11:57:15.255Z,0.17
2022-10-09T11:59:43.590Z,0.10
2022-10-09T12:02:25.620Z,0.35
2022-10-09T12:04:55.480Z,0.15
2022-10-09T12:07:34.309Z,0.10
2022-10-09T12:10:06.723Z,0.17
2022-10-09T12:12:37.793Z,0.17
2022-10-09T12:15:24.476Z,0.17
2022-10-09T12:17:52.387Z,0.20
2022-10-09T12:20:24.741Z,0.20
2022-10-09T12:23:24.754Z,0.20
2022-10-09T12:25:47.206Z,0.10
2022-10-09T12:28:26.915Z,0.20
2022-10-09T12:30:56.605Z,0.20
2022-10-09T12:33:28.796Z,0.17
2022-10-09T12:36:03.716Z,0.20
2022-10-09T12:38:33.961Z,0.20
2022-10-09T12:41:04.395Z,0.40
2022-10-09T12:43:34.662Z,0.20
2022-10-09T12:46:02.896Z,0.10
2022-10-09T12:48:37.789Z,0.20
2022-10-09T12:51:16.360Z,0.40
2022-10-09T12:53:51.165Z,0.30
2022-10-09T12:56:24.145Z,0.20
2022-10-09T12:58:53.142Z,0.20
2022-10-09T13:01:21.951Z,0.20
2022-10-09T13:03:59.133Z,0.28
2022-10-09T13:06:31.604Z,0.20
2022-10-09T13:09:04.122Z,0.30
2022-10-09T13:11:34.491Z,0.30
2022-10-09T13:14:03.016Z,0.47
2022-10-09T13:16:41.521Z,0.20
2022-10-09T13:19:22.978Z,0.80
2022-10-09T13:22:01.928Z,0.50
2022-10-09T13:24:31.644Z,0.30
2022-10-09T13:26:59.537Z,0.32
2022-10-09T13:29:27.415Z,0.30
2022-10-09T13:31:55.282Z,0.30
2022-10-09T13:34:23.804Z,0.40
2022-10-09T13:36:52.022Z,0.30
2022-10-09T13:39:20.103Z,0.30
2022-10-09T13:41:52.786Z,0.40
2022-10-09T13:44:20.858Z,0.30
2022-10-09T13:46:48.700Z,0.30
2022-10-09T13:49:16.776Z,0.25
2022-10-09T13:51:44.756Z,0.32
2022-10-09T13:54:12.613Z,0.40
2022-10-09T13:56:40.648Z,0.43
2022-10-09T13:59:09.969Z,0.32
2022-10-09T14:01:37.887Z,0.47
2022-10-09T14:04:05.768Z,0.40
2022-10-09T14:06:35.663Z,0.50
2022-10-09T14:09:04.200Z,0.60
2022-10-09T14:11:32.252Z,0.45
2022-10-09T14:14:00.600Z,0.60
2022-10-09T14:16:31.002Z,0.40
2022-10-09T14:21:27.106Z,0.52
2022-10-09T14:23:55.035Z,0.50
2022-10-09T14:26:23.417Z,0.50
2022-10-09T14:28:51.392Z,0.38
2022-10-09T14:31:20.287Z,0.32
2022-10-09T14:33:50.173Z,0.43
2022-10-09T14:36:20.346Z,0.50
2022-10-09T14:38:49.418Z,0.32
2022-10-09T14:41:18.705Z,0.60
2022-10-09T14:43:47.511Z,0.45
2022-10-09T14:46:17.908Z,0.30
2022-10-09T14:51:18.286Z,0.28
2022-10-09T14:53:46.614Z,0.32
2022-10-09T14:56:16.518Z,0.40
2022-10-09T14:58:45.261Z,0.30
2022-10-09T15:01:14.365Z,0.30
2022-10-09T15:03:42.896Z,0.45
2022-10-09T15:06:13.136Z,0.50
2022-10-09T15:08:43.689Z,0.30
2022-10-09T15:13:41.136Z,0.40
2022-10-09T15:16:12.018Z,0.28
2022-10-09T15:18:40.348Z,0.50
2022-10-09T15:21:13.521Z,0.40
2022-10-09T15:23:43.243Z,0.30
2022-10-09T15:26:12.334Z,0.65
2022-10-09T15:28:42.692Z,0.45
2022-10-09T15:33:45.280Z,0.65
2022-10-09T15:36:13.179Z,0.70
2022-10-09T15:38:42.470Z,0.40
2022-10-09T15:41:21.233Z,0.45
2022-10-09T15:43:49.367Z,0.73
2022-10-09T15:46:17.515Z,0.43
2022-10-09T15:48:45.880Z,0.40
2022-10-09T15:51:14.398Z,0.65
2022-10-09T15:53:44.961Z,0.40
2022-10-09T15:56:15.126Z,0.40
2022-10-09T15:58:43.068Z,0.40
2022-10-09T16:01:13.743Z,0.40
2022-10-09T16:03:41.911Z,0.35
2022-10-09T16:06:12.783Z,0.40
2022-10-09T16:08:42.101Z,0.75
2022-10-09T16:11:13.336Z,0.30
2022-10-09T16:13:42.935Z,0.20
2022-10-09T16:16:14.515Z,0.33
2022-10-09T16:18:42.365Z,0.38
2022-10-09T16:21:13.971Z,0.38
2022-10-09T16:23:42.399Z,0.50
2022-10-09T16:26:14.710Z,0.40
2022-10-09T16:28:43.380Z,0.40
2022-10-09T16:31:18.926Z,0.47
2022-10-09T16:33:46.866Z,0.28
2022-10-09T16:36:14.803Z,0.40
2022-10-09T16:38:43.264Z,0.68
2022-10-09T16:41:14.807Z,0.40
2022-10-09T16:43:46.083Z,0.60
2022-10-09T16:46:18.794Z,0.60
2022-10-09T16:48:47.053Z,0.52
2022-10-09T16:51:17.428Z,0.50
2022-10-09T16:56:15.970Z,0.63
2022-10-09T16:58:44.934Z,0.50
2022-10-09T17:01:13.683Z,0.55
2022-10-09T17:03:41.827Z,0.50
2022-10-09T17:06:11.517Z,0.40
2022-10-09T17:08:39.763Z,0.68
2022-10-09T17:11:09.200Z,0.80
2022-10-09T17:13:38.997Z,0.70
2022-10-09T17:16:08.069Z,0.57
2022-10-09T17:18:36.557Z,1.50
2022-10-09T17:21:05.540Z,0.40
2022-10-09T17:23:33.854Z,0.55
2022-10-09T17:26:06.736Z,0.70
2022-10-09T17:28:35.547Z,0.70
2022-10-09T17:31:06.992Z,0.60
2022-10-09T17:33:37.376Z,0.70
2022-10-09T17:38:33.328Z,0.70
2022-10-09T17:41:04.071Z,0.40
2022-10-09T17:43:32.069Z,0.73
2022-10-09T17:46:00.617Z,1.08
2022-10-09T17:48:32.980Z,0.50
2022-10-09T17:51:01.922Z,0.50
2022-10-09T17:53:29.999Z,0.90
2022-10-09T17:55:58.724Z,0.57
2022-10-09T17:58:26.631Z,1.58
2022-10-09T18:00:57.260Z,0.70
2022-10-09T18:03:25.571Z,0.70
2022-10-09T18:05:54.903Z,1.13
2022-10-09T18:08:23.290Z,1.55
2022-10-09T18:10:59.356Z,0.70
2022-10-09T18:13:27.363Z,0.80
2022-10-09T18:15:55.475Z,1.02
2022-10-09T18:18:23.586Z,0.70
2022-10-09T18:20:51.582Z,0.82
2022-10-09T18:23:22.792Z,1.10
2022-10-09T18:25:51.051Z,1.77
2022-10-09T18:28:19.589Z,1.38
2022-10-09T18:30:47.586Z,0.93
2022-10-09T18:33:15.517Z,1.35
2022-10-09T18:35:43.437Z,1.33
2022-10-09T18:38:11.928Z,0.77
2022-10-09T18:40:45.657Z,1.30
2022-10-09T18:43:13.912Z,1.10
2022-10-09T18:45:49.057Z,1.10
2022-10-09T18:48:18.169Z,1.08
2022-10-09T18:50:46.138Z,1.13
2022-10-09T18:53:14.143Z,1.05
2022-10-09T18:55:45.212Z,0.90
2022-10-09T18:58:14.956Z,0.88
2022-10-09T19:00:46.044Z,0.73
2022-10-09T19:03:13.913Z,1.33
2022-10-09T19:05:41.839Z,0.60
2022-10-09T19:08:09.693Z,0.77
2022-10-09T19:10:37.551Z,0.98
2022-10-09T19:13:06.889Z,1.05
2022-10-09T19:15:34.937Z,0.90
2022-10-09T19:18:02.803Z,0.98
2022-10-09T19:20:31.554Z,0.70
2022-10-09T19:22:59.420Z,0.68
2022-10-09T19:25:27.290Z,0.65
2022-10-09T19:27:55.189Z,0.80
2022-10-09T19:30:24.431Z,0.50
2022-10-09T19:32:52.973Z,1.00
2022-10-09T19:35:21.016Z,0.85
2022-10-09T19:37:49.101Z,0.80
2022-10-09T19:40:17.187Z,1.33
2022-10-09T19:42:45.093Z,1.10
2022-10-09T19:45:13.024Z,0.68
2022-10-09T19:47:42.251Z,0.70
2022-10-09T19:50:10.514Z,0.70
2022-10-09T19:52:38.376Z,1.25
2022-10-09T19:55:07.077Z,0.80
2022-10-09T19:57:34.924Z,0.90
2022-10-09T20:00:02.960Z,0.80
2022-10-09T20:02:30.834Z,1.08
2022-10-09T20:05:00.142Z,1.08
2022-10-09T20:07:28.030Z,1.27
2022-10-09T20:09:55.963Z,0.68
2022-10-09T20:12:23.859Z,0.73
2022-10-09T20:14:51.720Z,0.60
2022-10-09T20:17:20.878Z,0.57
2022-10-09T20:19:48.880Z,0.85
2022-10-09T20:22:20.618Z,0.68
2022-10-09T20:24:53.287Z,1.00
2022-10-09T20:27:21.528Z,0.60
2022-10-09T20:29:49.392Z,0.85
2022-10-09T20:32:18.016Z,0.90
2022-10-09T20:34:45.881Z,0.73
2022-10-09T20:37:13.869Z,1.00
2022-10-09T20:39:43.132Z,1.00
2022-10-09T20:42:11.274Z,0.95
2022-10-09T20:44:39.144Z,0.82
2022-10-09T20:47:07.036Z,1.00
2022-10-09T20:49:34.923Z,0.93
2022-10-09T20:52:03.117Z,1.30
2022-10-09T20:54:31.619Z,0.88
2022-10-09T20:57:00.836Z,1.23
2022-10-09T20:59:28.759Z,0.70
2022-10-09T21:01:56.623Z,0.85
2022-10-09T21:04:24.736Z,1.00
2022-10-09T21:06:52.584Z,1.00
2022-10-09T21:09:20.400Z,0.85
2022-10-09T21:11:48.255Z,0.77
2022-10-09T21:14:17.900Z,1.00
2022-10-09T21:16:45.774Z,1.00
2022-10-09T21:19:13.647Z,0.75
2022-10-09T21:21:41.493Z,0.80
2022-10-09T21:24:09.390Z,0.63
2022-10-09T21:26:37.897Z,0.90
2022-10-09T21:29:06.865Z,0.68
2022-10-09T21:31:36.204Z,0.90
2022-10-09T21:34:04.295Z,1.35
2022-10-09T21:36:41.126Z,0.82
2022-10-09T21:39:19.052Z,1.33
2022-10-09T21:41:47.079Z,0.90
2022-10-09T21:44:15.143Z,0.82
2022-10-09T21:46:44.354Z,0.90
2022-10-09T21:49:19.856Z,0.90
2022-10-09T21:51:47.922Z,0.70
2022-10-09T21:54:15.938Z,0.85
2022-10-09T21:56:43.815Z,0.93
2022-10-09T21:59:12.471Z,1.00
2022-10-09T22:01:40.398Z,0.65
2022-10-09T22:04:09.659Z,1.15
2022-10-09T22:06:37.521Z,0.98
2022-10-09T22:09:05.499Z,0.88
2022-10-09T22:11:33.389Z,0.90
2022-10-09T22:14:01.670Z,0.90
2022-10-09T22:16:29.539Z,0.70
2022-10-09T22:18:57.466Z,1.08
2022-10-09T22:21:26.678Z,0.80
2022-10-09T22:23:54.774Z,1.15
2022-10-09T22:26:23.730Z,1.65
2022-10-09T22:28:51.594Z,1.45
2022-10-09T22:31:21.510Z,0.90
2022-10-09T22:33:51.783Z,0.80
2022-10-09T22:36:21.507Z,1.00
2022-10-09T22:38:53.636Z,0.98
2022-10-09T22:41:23.094Z,1.10
2022-10-09T22:43:53.464Z,0.67
2022-10-09T22:46:23.451Z,1.40
2022-10-09T22:48:51.686Z,1.25
2022-10-09T22:51:21.687Z,1.00
2022-10-09T22:53:51.426Z,0.90
2022-10-09T22:56:21.449Z,1.20
2022-10-09T22:58:50.678Z,1.65
2022-10-09T23:01:20.790Z,1.30
2022-10-09T23:03:48.659Z,1.10
2022-10-09T23:06:18.788Z,1.20
2022-10-09T23:08:48.786Z,0.90
2022-10-09T23:11:19.725Z,1.20
2022-10-09T23:13:48.826Z,1.05
2022-10-09T23:16:17.149Z,1.25
2022-10-09T23:18:45.360Z,1.00
2022-10-09T23:21:15.289Z,0.95
2022-10-09T23:23:44.168Z,0.98
2022-10-09T23:26:14.351Z,1.00
2022-10-09T23:28:44.479Z,1.23
2022-10-09T23:31:14.698Z,0.88
2022-10-09T23:33:44.152Z,1.13
2022-10-09T23:36:14.104Z,1.97
2022-10-09T23:38:42.707Z,1.27
2022-10-09T23:41:13.436Z,1.10
2022-10-09T23:43:44.026Z,1.65
2022-10-09T23:46:14.583Z,1.10
2022-10-09T23:48:42.883Z,1.40
2022-10-09T23:51:10.788Z,1.20
2022-10-09T23:53:38.882Z,1.17
2022-10-09T23:56:08.433Z,1.30
2022-10-09T23:58:36.270Z,0.97
